Time;durP1;ratioP1;P1;durP2;ratioP2;P2;SDS_P1;SDS_P2;PMS_P1;PMS_P2;Temp;Humidity;BMP_temperature;BMP_pressure;BME280_temperature;BME280_humidity;BME280_pressure;Samples;Min_cycle;Max_cycle;Signal;HPM_P1;HPM_P2
2023/08/17 00:02:12;;;;;;;4.15;1.25;;;;;;;-142.75;100.00;76710.06;5026823;28;20103;-63
2023/08/17 00:04:37;;;;;;;2.88;1.13;;;;;;;-142.75;100.00;76729.75;5026713;28;20033;-63
2023/08/17 00:07:02;;;;;;;5.55;1.35;;;;;;;-142.75;100.00;76715.97;5026974;28;20493;-62
2023/08/17 00:09:28;;;;;;;3.75;1.30;;;;;;;-142.75;100.00;76712.03;5026984;28;20079;-63
2023/08/17 00:11:53;;;;;;;2.78;1.02;;;;;;;-142.75;100.00;76725.81;5031101;28;20472;-63
2023/08/17 00:14:18;;;;;;;2.50;1.15;;;;;;;-142.75;100.00;76723.84;5046286;28;20086;-63
2023/08/17 00:16:44;;;;;;;3.30;1.23;;;;;;;-142.75;100.00;76715.97;5038316;28;20080;-63
2023/08/17 00:19:09;;;;;;;5.05;1.20;;;;;;;-142.75;100.00;76723.84;5026850;28;20515;-63
2023/08/17 00:21:35;;;;;;;5.30;1.05;;;;;;;-142.75;100.00;76731.72;5042124;28;20455;-63
2023/08/17 00:24:01;;;;;;;2.83;1.10;;;;;;;-142.75;100.00;76727.78;5045793;28;20025;-63
2023/08/17 00:26:27;;;;;;;4.18;1.15;;;;;;;-142.75;100.00;76715.97;5044744;28;20074;-61
2023/08/17 00:28:53;;;;;;;3.83;1.20;;;;;;;-142.75;100.00;76723.84;5028672;28;20029;-63
2023/08/17 00:31:18;;;;;;;3.30;1.15;;;;;;;-142.75;100.00;76717.94;5026212;28;20087;-63
2023/08/17 00:33:44;;;;;;;3.58;1.30;;;;;;;-142.75;100.00;76731.72;5026427;28;20473;-63
2023/08/17 00:36:09;;;;;;;4.95;1.10;;;;;;;-142.75;100.00;76725.81;5026654;28;20027;-63
2023/08/17 00:38:34;;;;;;;3.00;1.15;;;;;;;-142.75;100.00;76723.84;5026388;28;20094;-63
2023/08/17 00:40:59;;;;;;;5.03;1.25;;;;;;;-142.75;100.00;76731.72;5032576;28;20025;-63
2023/08/17 00:43:25;;;;;;;4.30;1.38;;;;;;;-142.75;100.00;76749.44;5026286;28;20083;-63
2023/08/17 00:45:51;;;;;;;4.18;1.02;;;;;;;-142.75;100.00;76735.66;5026232;28;20021;-63
2023/08/17 00:48:16;;;;;;;4.28;1.00;;;;;;;-142.75;100.00;76733.69;5030782;28;20025;-63
2023/08/17 00:50:43;;;;;;;5.60;1.33;;;;;;;-142.75;100.00;76721.88;5046211;28;20016;-63
2023/08/17 00:53:13;;;;;;;2.28;1.05;;;;;;;-142.75;100.00;76751.41;5045867;28;20024;-63
2023/08/17 00:55:40;;;;;;;4.40;1.50;;;;;;;-142.75;100.00;76727.78;5045682;28;20033;-63
2023/08/17 00:58:05;;;;;;;5.13;1.10;;;;;;;-142.75;100.00;76727.78;5046211;28;20024;-63
2023/08/17 01:00:31;;;;;;;6.30;1.63;;;;;;;-142.75;100.00;76739.59;5045412;28;20032;-63
2023/08/17 01:02:57;;;;;;;4.47;1.08;;;;;;;-142.75;100.00;76723.84;5045547;28;20107;-62
2023/08/17 01:05:23;;;;;;;4.30;1.15;;;;;;;-142.75;100.00;76719.91;5045415;28;20474;-63
2023/08/17 01:07:49;;;;;;;3.03;1.27;;;;;;;-142.75;100.00;76717.94;5041921;28;20817;-63
2023/08/17 01:10:15;;;;;;;3.85;1.48;;;;;;;-142.75;100.00;76721.88;5026003;28;20033;-63
2023/08/17 01:12:40;;;;;;;2.70;1.02;;;;;;;-142.75;100.00;76712.03;5027299;28;20500;-63
2023/08/17 01:15:27;;;;;;;8.23;1.63;;;;;;;-142.75;100.00;76706.13;5043458;28;20135;-63
2023/08/17 01:18:28;;;;;;;7.57;1.23;;;;;;;-142.75;100.00;76708.09;5045415;28;20111;-63
2023/08/17 01:20:54;;;;;;;4.50;1.30;;;;;;;-142.75;100.00;76698.25;5042882;28;20071;-64
2023/08/17 01:23:20;;;;;;;2.85;1.10;;;;;;;-142.75;100.00;76710.06;5025158;28;20075;-63
2023/08/17 01:25:46;;;;;;;3.83;1.00;;;;;;;-142.75;100.00;76704.16;5040822;28;20600;-63
2023/08/17 01:28:11;;;;;;;7.25;1.20;;;;;;;-142.75;100.00;76719.91;5044474;28;20029;-63
2023/08/17 01:30:46;;;;;;;3.85;1.30;;;;;;;-142.75;100.00;76725.81;5044869;28;20078;-63
2023/08/17 01:33:16;;;;;;;5.88;1.40;;;;;;;-142.75;100.00;76712.03;5035376;28;20401;-63
2023/08/17 01:36:05;;;;;;;4.45;1.20;;;;;;;-142.75;100.00;76712.03;5025295;28;20489;-63
2023/08/17 01:38:32;;;;;;;5.07;1.10;;;;;;;-142.75;100.00;76723.84;5025174;28;20083;-63
2023/08/17 01:41:00;;;;;;;1.63;0.73;;;;;;;-142.75;100.00;76723.84;5025866;28;20033;-63
2023/08/17 01:43:27;;;;;;;3.97;1.40;;;;;;;-142.75;100.00;76725.81;5022661;28;20041;-63
2023/08/17 01:45:52;;;;;;;3.65;1.17;;;;;;;-142.75;100.00;76721.88;5025092;28;20021;-63
2023/08/17 01:48:17;;;;;;;3.47;1.10;;;;;;;-142.75;100.00;76729.75;5025284;28;20112;-63
2023/08/17 01:50:43;;;;;;;3.55;1.05;;;;;;;-142.75;100.00;76715.97;5025995;28;20183;-63
2023/08/17 01:53:09;;;;;;;6.85;1.55;;;;;;;-142.75;100.00;76719.91;5025346;28;20061;-63
2023/08/17 01:55:35;;;;;;;3.42;1.25;;;;;;;-142.75;100.00;76735.66;5034167;28;20048;-63
2023/08/17 01:58:01;;;;;;;8.70;1.45;;;;;;;-142.75;100.00;76755.34;5044432;28;20020;-63
2023/08/17 02:00:26;;;;;;;4.68;1.40;;;;;;;-142.75;100.00;76747.47;5042290;28;20025;-63
2023/08/17 02:02:51;;;;;;;6.05;1.10;;;;;;;-142.75;100.00;76735.66;5024808;28;20497;-63
2023/08/17 02:05:17;;;;;;;2.55;0.85;;;;;;;-142.75;100.00;76735.66;5032592;28;20031;-63
2023/08/17 02:07:42;;;;;;;4.00;1.20;;;;;;;-142.75;100.00;76755.34;5044366;28;20028;-62
2023/08/17 02:10:08;;;;;;;4.00;1.20;;;;;;;-142.75;100.00;76753.38;5044702;28;20029;-63
2023/08/17 02:12:33;;;;;;;5.38;1.30;;;;;;;-142.75;100.00;76761.25;5044328;28;20052;-62
2023/08/17 02:14:58;;;;;;;2.75;1.48;;;;;;;-142.75;100.00;76767.16;5044027;28;20025;-63
2023/08/17 02:17:24;;;;;;;2.25;1.05;;;;;;;-142.75;100.00;76765.19;5044898;28;20108;-63
2023/08/17 02:19:49;;;;;;;4.70;1.10;;;;;;;-142.75;100.00;76765.19;5044668;28;20052;-62
2023/08/17 02:22:15;;;;;;;5.55;1.50;;;;;;;-142.75;100.00;76757.31;5044838;28;20021;-62
2023/08/17 02:24:40;;;;;;;3.95;2.00;;;;;;;-142.75;100.00;76767.16;5044101;28;20435;-63
2023/08/17 02:27:06;;;;;;;2.55;1.17;;;;;;;-142.75;100.00;76763.22;5043362;28;20123;-62
2023/08/17 02:29:32;;;;;;;5.07;1.25;;;;;;;-142.75;100.00;76775.03;5043129;28;20404;-63
2023/08/17 02:31:57;;;;;;;5.05;1.30;;;;;;;-142.75;100.00;76755.34;5024881;28;20536;-63
2023/08/17 02:34:22;;;;;;;2.22;1.00;;;;;;;-142.75;100.00;76759.28;5024235;28;20748;-62
2023/08/17 02:36:48;;;;;;;2.50;1.00;;;;;;;-142.75;100.00;76759.28;5024431;28;20648;-63
2023/08/17 02:39:13;;;;;;;3.60;1.55;;;;;;;-142.75;100.00;76761.25;5024487;28;20930;-63
2023/08/17 02:41:39;;;;;;;6.50;1.85;;;;;;;-142.75;100.00;76775.03;5029008;28;20060;-63
2023/08/17 02:44:04;;;;;;;5.35;1.50;;;;;;;-142.75;100.00;76771.09;5028419;28;20069;-63
2023/08/17 02:46:29;;;;;;;2.67;1.23;;;;;;;-142.75;100.00;76767.16;5028664;28;20036;-63
2023/08/17 02:48:55;;;;;;;4.60;1.20;;;;;;;-142.75;100.00;76749.44;5028883;28;20432;-63
2023/08/17 02:51:20;;;;;;;5.72;1.45;;;;;;;-142.75;100.00;76759.28;5038727;28;20431;-63
2023/08/17 02:53:46;;;;;;;3.15;1.30;;;;;;;-142.75;100.00;76749.44;5027115;28;20021;-62
2023/08/17 02:56:12;;;;;;;6.32;1.60;;;;;;;-142.75;100.00;76747.47;5028209;28;20017;-63
2023/08/17 02:58:40;;;;;;;6.22;1.30;;;;;;;-142.75;100.00;76745.50;5027899;28;20088;-64
2023/08/17 03:01:06;;;;;;;4.47;1.60;;;;;;;-142.75;100.00;76755.34;5035794;28;20031;-63
2023/08/17 03:03:32;;;;;;;5.03;1.48;;;;;;;-142.75;100.00;76747.47;5047421;28;20107;-62
2023/08/17 03:05:57;;;;;;;6.57;1.38;;;;;;;-142.75;100.00;76757.31;5034243;28;20035;-63
2023/08/17 03:08:22;;;;;;;5.75;1.38;;;;;;;-142.75;100.00;76743.53;5041222;28;20036;-63
2023/08/17 03:10:48;;;;;;;2.65;1.20;;;;;;;-142.75;100.00;76739.59;5047972;28;20480;-62
2023/08/17 03:13:13;;;;;;;4.05;1.30;;;;;;;-142.75;100.00;76757.31;5042433;28;20064;-62
2023/08/17 03:15:39;;;;;;;3.58;1.38;;;;;;;-142.75;100.00;76761.25;5028949;28;20076;-63
2023/08/17 03:18:05;;;;;;;5.22;1.40;;;;;;;-142.75;100.00;76755.34;5027569;28;20025;-63
2023/08/17 03:20:31;;;;;;;2.70;1.45;;;;;;;-142.75;100.00;76747.47;5038129;28;20393;-62
2023/08/17 03:22:56;;;;;;;2.17;1.13;;;;;;;-142.75;100.00;76739.59;5028894;28;20025;-63
2023/08/17 03:25:22;;;;;;;2.38;1.25;;;;;;;-142.75;100.00;76745.50;5028660;28;20030;-63
2023/08/17 03:27:47;;;;;;;2.97;1.23;;;;;;;-142.75;100.00;76743.53;5030050;28;20480;-62
2023/08/17 03:30:12;;;;;;;3.30;1.48;;;;;;;-142.75;100.00;76747.47;5047517;28;20781;-63
2023/08/17 03:32:38;;;;;;;6.30;1.50;;;;;;;-142.75;100.00;76739.59;5046942;28;20021;-63
2023/08/17 03:35:03;;;;;;;3.80;1.35;;;;;;;-142.75;100.00;76745.50;5046952;28;20020;-62
2023/08/17 03:37:29;;;;;;;3.47;1.70;;;;;;;-142.75;100.00;76757.31;5047473;28;20032;-63
2023/08/17 03:39:54;;;;;;;3.33;1.27;;;;;;;-142.75;100.00;76767.16;5047439;28;20110;-63
2023/08/17 03:42:20;;;;;;;3.00;1.50;;;;;;;-142.75;100.00;76747.47;5046098;28;20108;-62
2023/08/17 03:44:45;;;;;;;5.03;1.70;;;;;;;-142.75;100.00;76745.50;5027164;28;20557;-63
2023/08/17 03:47:11;;;;;;;9.45;1.92;;;;;;;-142.75;100.00;76743.53;5032780;28;21319;-63
2023/08/17 03:49:36;;;;;;;5.28;1.58;;;;;;;-142.75;100.00;76743.53;5027215;28;20030;-62
2023/08/17 03:52:02;;;;;;;6.07;2.15;;;;;;;-142.75;100.00;76739.59;5027160;28;20025;-63
2023/08/17 03:54:27;;;;;;;4.32;1.55;;;;;;;-142.75;100.00;76735.66;5025453;28;20028;-62
2023/08/17 03:56:53;;;;;;;5.70;1.20;;;;;;;-142.75;100.00;76741.56;5026826;28;20018;-62
2023/08/17 03:59:18;;;;;;;5.93;1.40;;;;;;;-142.75;100.00;76731.72;5045310;28;20032;-62
2023/08/17 04:01:43;;;;;;;6.80;1.55;;;;;;;-142.75;100.00;76743.53;5035327;28;20037;-62
2023/08/17 04:04:09;;;;;;;4.57;1.42;;;;;;;-142.75;100.00;76751.41;5026230;28;20044;-63
2023/08/17 04:06:35;;;;;;;5.07;1.50;;;;;;;-142.75;100.00;76743.53;5026637;28;20036;-62
2023/08/17 04:09:01;;;;;;;5.80;2.03;;;;;;;-142.75;100.00;76731.72;5036627;28;20118;-63
2023/08/17 04:11:27;;;;;;;6.55;1.25;;;;;;;-142.75;100.00;76741.56;5047366;28;20016;-63
2023/08/17 04:13:52;;;;;;;4.95;1.13;;;;;;;-142.75;100.00;76741.56;5036262;28;20021;-63
2023/08/17 04:16:17;;;;;;;6.28;1.60;;;;;;;-142.75;100.00;76745.50;5027988;28;20524;-62
2023/08/17 04:18:43;;;;;;;5.47;1.30;;;;;;;-142.75;100.00;76735.66;5027090;28;20112;-63
2023/08/17 04:21:08;;;;;;;2.90;1.10;;;;;;;-142.75;100.00;76735.66;5026955;28;20041;-62
2023/08/17 04:23:34;;;;;;;4.07;1.48;;;;;;;-142.75;100.00;76735.66;5026519;28;20113;-63
2023/08/17 04:25:59;;;;;;;3.40;1.45;;;;;;;-142.75;100.00;76739.59;5026719;28;20100;-63
2023/08/17 04:28:24;;;;;;;5.50;1.50;;;;;;;-142.75;100.00;76743.53;5027155;28;20107;-62
2023/08/17 04:30:50;;;;;;;8.02;1.33;;;;;;;-142.75;100.00;76739.59;5039093;28;20025;-63
2023/08/17 04:33:15;;;;;;;3.70;1.27;;;;;;;-142.75;100.00;76759.28;5045665;28;20159;-63
2023/08/17 04:35:40;;;;;;;4.40;1.13;;;;;;;-142.75;100.00;76749.44;5045909;28;20059;-62
2023/08/17 04:38:06;;;;;;;2.92;1.50;;;;;;;-142.75;100.00;76745.50;5034374;28;20017;-63
2023/08/17 04:40:32;;;;;;;3.17;1.38;;;;;;;-142.75;100.00;76755.34;5026518;28;20036;-62
2023/08/17 04:42:57;;;;;;;3.58;1.05;;;;;;;-142.75;100.00;76755.34;5025825;28;20033;-62
2023/08/17 04:45:23;;;;;;;2.30;1.05;;;;;;;-142.75;100.00;76741.56;5025782;28;20032;-62
2023/08/17 04:47:49;;;;;;;6.30;1.70;;;;;;;-142.75;100.00;76749.44;5026105;28;20484;-63
2023/08/17 04:50:16;;;;;;;2.58;1.17;;;;;;;-142.75;100.00;76745.50;5030340;28;20388;-63
2023/08/17 04:52:44;;;;;;;6.40;1.38;;;;;;;-142.75;100.00;76751.41;5046127;28;20388;-62
2023/08/17 04:55:10;;;;;;;6.72;1.38;;;;;;;-142.75;100.00;76745.50;5045617;28;20552;-63
2023/08/17 04:57:36;;;;;;;4.43;1.10;;;;;;;-142.75;100.00;76743.53;5045843;28;20123;-63
2023/08/17 05:00:01;;;;;;;5.57;1.60;;;;;;;-142.75;100.00;76755.34;5045602;28;20108;-62
2023/08/17 05:02:27;;;;;;;4.70;1.20;;;;;;;-142.75;100.00;76749.44;5045157;28;20107;-62
2023/08/17 05:04:52;;;;;;;4.50;1.50;;;;;;;-142.75;100.00;76737.63;5030112;28;20021;-62
2023/08/17 05:07:17;;;;;;;3.13;1.13;;;;;;;-142.75;100.00;76725.81;5045752;28;20017;-63
2023/08/17 05:09:43;;;;;;;2.95;1.25;;;;;;;-142.75;100.00;76735.66;5044291;28;20029;-63
2023/08/17 05:12:08;;;;;;;3.67;1.00;;;;;;;-142.75;100.00;76719.91;5045806;28;20071;-63
2023/08/17 05:14:33;;;;;;;3.72;1.20;;;;;;;-142.75;100.00;76721.88;5044814;28;20108;-63
2023/08/17 05:16:59;;;;;;;4.05;1.27;;;;;;;-142.75;100.00;76723.84;5026587;28;20025;-63
2023/08/17 05:19:25;;;;;;;6.68;1.67;;;;;;;-142.75;100.00;76719.91;5045518;28;20094;-63
2023/08/17 05:21:51;;;;;;;3.65;0.82;;;;;;;-142.75;100.00;76735.66;5045456;28;20048;-63
2023/08/17 05:24:17;;;;;;;2.15;1.08;;;;;;;-142.75;100.00;76767.16;5038374;28;20385;-63
2023/08/17 05:26:43;;;;;;;2.22;1.00;;;;;;;-142.75;100.00;76777.00;5045234;28;20115;-63
2023/08/17 05:29:08;;;;;;;2.45;1.10;;;;;;;-142.75;100.00;76773.06;5044891;28;20033;-63
2023/08/17 05:31:34;;;;;;;2.83;0.93;;;;;;;-142.75;100.00;76763.22;5044768;28;20748;-63
2023/08/17 05:33:59;;;;;;;5.53;1.30;;;;;;;-142.75;100.00;76747.47;5044494;28;20130;-63
2023/08/17 05:36:24;;;;;;;6.70;1.55;;;;;;;-142.75;100.00;76767.16;5044954;28;20029;-62
2023/08/17 05:38:50;;;;;;;5.68;1.17;;;;;;;-142.75;100.00;76747.47;5041150;28;20033;-63
2023/08/17 05:41:17;;;;;;;2.40;1.02;;;;;;;-142.75;100.00;76725.81;5025422;28;20057;-62
2023/08/17 05:44:00;;;;;;;4.00;1.10;;;;;;;-142.75;100.00;76723.84;5022430;28;20501;-62
2023/08/17 05:46:26;;;;;;;6.13;1.20;;;;;;;-142.75;100.00;76712.03;5024948;28;20029;-62
2023/08/17 05:48:51;;;;;;;2.55;0.90;;;;;;;-142.75;100.00;76712.03;5025064;28;20147;-62
2023/08/17 05:51:16;;;;;;;3.70;1.20;;;;;;;-142.75;100.00;76715.97;5025798;28;20025;-62
2023/08/17 05:53:42;;;;;;;3.60;1.02;;;;;;;-142.75;100.00;76712.03;5024762;28;20017;-62
2023/08/17 05:56:07;;;;;;;4.07;1.10;;;;;;;-142.75;100.00;76712.03;5025436;28;20592;-62
2023/08/17 05:58:32;;;;;;;4.47;1.38;;;;;;;-142.75;100.00;76747.47;5025349;28;20025;-63
2023/08/17 06:01:08;;;;;;;3.03;1.00;;;;;;;-142.75;100.00;76735.66;5025476;28;20021;-62
2023/08/17 06:03:34;;;;;;;5.10;0.90;;;;;;;-142.75;100.00;76721.88;5034064;28;20493;-63
2023/08/17 06:05:59;;;;;;;3.38;1.10;;;;;;;-142.75;100.00;76725.81;5043235;28;20022;-63
2023/08/17 06:08:25;;;;;;;7.03;1.20;;;;;;;-142.75;100.00;76725.81;5029920;28;20091;-62
2023/08/17 06:10:50;;;;;;;5.55;1.38;;;;;;;-142.75;100.00;76725.81;5025403;28;20025;-62
2023/08/17 06:13:15;;;;;;;2.97;1.20;;;;;;;-142.75;100.00;76727.78;5041113;28;20033;-62
2023/08/17 06:15:41;;;;;;;4.20;1.27;;;;;;;-142.75;100.00;76723.84;5039145;28;20514;-62
2023/08/17 06:18:06;;;;;;;3.42;0.88;;;;;;;-142.75;100.00;76739.59;5048520;28;20397;-62
2023/08/17 06:20:32;;;;;;;4.43;1.02;;;;;;;-142.75;100.00;76733.69;5049071;28;20064;-63
2023/08/17 06:22:57;;;;;;;2.20;1.10;;;;;;;-142.75;100.00;76731.72;5049241;28;20017;-62
2023/08/17 06:25:22;;;;;;;3.13;1.30;;;;;;;-142.75;100.00;76735.66;5048468;28;20379;-62
2023/08/17 06:27:51;;;;;;;4.25;1.17;;;;;;;-142.75;100.00;76739.59;5048391;28;20536;-62
2023/08/17 06:30:17;;;;;;;5.10;1.20;;;;;;;-142.75;100.00;76739.59;5048626;28;20033;-62
2023/08/17 06:32:42;;;;;;;2.50;1.10;;;;;;;-142.75;100.00;76747.47;5048410;28;20484;-63
2023/08/17 06:35:08;;;;;;;4.72;1.40;;;;;;;-142.75;100.00;76731.72;5048428;28;20021;-63
2023/08/17 06:37:33;;;;;;;2.60;1.00;;;;;;;-142.75;100.00;76704.16;5048205;28;20020;-63
2023/08/17 06:39:58;;;;;;;2.83;1.00;;;;;;;-142.75;100.00;76696.28;5029498;28;20384;-63
2023/08/17 06:42:24;;;;;;;5.60;1.25;;;;;;;-142.75;100.00;76676.59;5045615;28;20025;-63
2023/08/17 06:44:49;;;;;;;5.65;1.30;;;;;;;-142.75;100.00;76682.50;5047587;28;20036;-63
2023/08/17 06:47:14;;;;;;;3.85;1.55;;;;;;;-142.75;100.00;76664.78;5048359;28;20637;-63
2023/08/17 06:49:40;;;;;;;4.63;1.30;;;;;;;-142.75;100.00;76651.00;5048315;28;20104;-63
2023/08/17 06:52:05;;;;;;;4.10;1.48;;;;;;;-142.75;100.00;76664.78;5048500;28;20108;-63
2023/08/17 06:54:32;;;;;;;4.93;1.27;;;;;;;-142.75;100.00;76651.00;5039147;28;20056;-63
2023/08/17 06:56:57;;;;;;;4.38;1.27;;;;;;;-142.75;100.00;76621.47;5028106;28;20028;-63
2023/08/17 06:59:23;;;;;;;4.78;1.40;;;;;;;-142.75;100.00;76586.03;5028847;28;20025;-62
2023/08/17 07:01:48;;;;;;;4.50;1.02;;;;;;;-142.75;100.00;76558.47;5027735;28;20021;-63
2023/08/17 07:04:13;;;;;;;2.83;0.90;;;;;;;-142.75;100.00;76572.25;5027644;28;20033;-63
2023/08/17 07:06:40;;;;;;;4.60;1.10;;;;;;;-142.75;100.00;76536.84;5027865;28;20052;-63
2023/08/17 07:09:06;;;;;;;3.22;1.23;;;;;;;-142.75;100.00;76503.38;5027694;28;20032;-63
2023/08/17 07:11:31;;;;;;;5.30;1.50;;;;;;;-142.75;100.00;76475.81;5041616;28;20032;-63
2023/08/17 07:13:57;;;;;;;6.03;1.50;;;;;;;-142.75;100.00;76481.72;5027945;28;20389;-63
2023/08/17 07:16:22;;;;;;;3.30;1.35;;;;;;;-142.75;100.00;76454.16;5027953;28;20492;-63
2023/08/17 07:18:47;;;;;;;4.20;1.50;;;;;;;-142.75;100.00;76475.81;5028047;28;20109;-62
2023/08/17 07:21:13;;;;;;;6.03;1.25;;;;;;;-142.75;100.00;76442.34;5027827;28;20104;-63
2023/08/17 07:23:38;;;;;;;4.38;1.35;;;;;;;-142.75;100.00;76450.22;5027497;28;20044;-63
2023/08/17 07:26:03;;;;;;;5.28;1.77;;;;;;;-142.75;100.00;76448.25;5026832;28;20022;-63
2023/08/17 07:28:29;;;;;;;4.50;1.33;;;;;;;-142.75;100.00;76436.44;5027256;28;20116;-63
2023/08/17 07:30:54;;;;;;;5.97;1.60;;;;;;;-142.75;100.00;76428.56;5027741;28;20108;-63
2023/08/17 07:33:20;;;;;;;5.22;2.00;;;;;;;-142.75;100.00;76422.66;5027490;28;20022;-63
2023/08/17 07:35:45;;;;;;;3.88;1.20;;;;;;;-142.75;100.00;76432.50;5035858;28;20550;-63
2023/08/17 07:38:10;;;;;;;9.65;1.73;;;;;;;-142.75;100.00;76444.31;5047214;28;20058;-63
2023/08/17 07:40:36;;;;;;;5.20;1.52;;;;;;;-142.75;100.00;76434.47;5047220;28;20486;-63
2023/08/17 07:43:01;;;;;;;4.28;1.50;;;;;;;-142.75;100.00;76418.72;5047431;28;20032;-63
2023/08/17 07:45:27;;;;;;;4.80;1.52;;;;;;;-142.75;100.00;76430.53;5047062;28;20392;-63
2023/08/17 07:47:52;;;;;;;6.32;1.63;;;;;;;-142.75;100.00;76438.41;5046969;28;20111;-63
2023/08/17 07:50:18;;;;;;;10.45;1.67;;;;;;;-142.75;100.00;76430.53;5047089;28;20111;-63
2023/08/17 07:52:43;;;;;;;6.43;2.00;;;;;;;-142.75;100.00;76424.63;5047442;28;20044;-63
2023/08/17 07:55:09;;;;;;;7.50;1.75;;;;;;;-142.75;100.00;76373.44;5046702;28;20099;-63
2023/08/17 07:57:34;;;;;;;4.70;1.38;;;;;;;-142.75;100.00;76367.53;5047079;28;20531;-63
2023/08/17 07:59:59;;;;;;;3.22;1.40;;;;;;;-142.75;100.00;76375.41;5047496;28;20029;-63
2023/08/17 08:02:25;;;;;;;7.25;1.38;;;;;;;-142.75;100.00;76401.00;5046286;28;20090;-63
2023/08/17 08:04:50;;;;;;;5.65;1.83;;;;;;;-142.75;100.00;76401.00;5045974;28;20037;-63
2023/08/17 08:07:15;;;;;;;5.88;1.88;;;;;;;-142.75;100.00;76365.56;5046708;28;20029;-63
2023/08/17 08:09:41;;;;;;;5.07;1.50;;;;;;;-142.75;100.00;76351.81;5046291;28;20043;-63
2023/08/17 08:12:07;;;;;;;5.72;1.60;;;;;;;-142.75;100.00;76308.50;5047257;28;20021;-64
2023/08/17 08:14:33;;;;;;;5.15;1.30;;;;;;;-142.75;100.00;76298.66;5046390;28;20025;-63
2023/08/17 08:16:59;;;;;;;4.20;1.48;;;;;;;-142.75;100.00;76280.94;5046623;28;20538;-64
2023/08/17 08:19:24;;;;;;;5.85;1.83;;;;;;;-142.75;100.00;76292.75;5046558;28;20056;-63
2023/08/17 08:21:49;;;;;;;6.55;1.58;;;;;;;-142.75;100.00;76251.41;5046977;28;20035;-63
2023/08/17 08:24:15;;;;;;;6.18;1.50;;;;;;;-142.75;100.00;76259.28;5046508;28;20502;-63
2023/08/17 08:26:40;;;;;;;5.93;1.40;;;;;;;-142.75;100.00;76290.78;5046169;28;20116;-63
2023/08/17 08:29:05;;;;;;;5.07;1.40;;;;;;;-142.75;100.00;76225.81;5046050;28;20538;-63
2023/08/17 08:31:31;;;;;;;7.20;1.92;;;;;;;-142.75;100.00;76200.25;5046159;28;20025;-63
2023/08/17 08:33:56;;;;;;;5.70;1.80;;;;;;;-142.75;100.00;76200.25;5045993;28;20024;-63
2023/08/17 08:36:21;;;;;;;3.45;1.50;;;;;;;-142.75;100.00;76188.44;5044887;28;20024;-63
2023/08/17 08:38:47;;;;;;;4.30;1.50;;;;;;;-142.75;100.00;76190.41;5046413;28;20025;-64
2023/08/17 08:41:12;;;;;;;4.35;1.30;;;;;;;-142.75;100.00;76176.63;5046321;28;20029;-64
2023/08/17 08:43:38;;;;;;;4.10;1.40;;;;;;;-142.75;100.00;76141.19;5045200;28;20028;-63
2023/08/17 08:46:04;;;;;;;2.15;1.00;;;;;;;-142.75;100.00;76139.22;5045649;28;20667;-63
2023/08/17 08:48:31;;;;;;;6.78;1.50;;;;;;;-142.75;100.00;76133.31;5045711;28;20455;-64
2023/08/17 08:51:00;;;;;;;5.50;1.73;;;;;;;-142.75;100.00;76145.13;5045441;28;20021;-64
2023/08/17 08:53:42;;;;;;;9.48;1.88;;;;;;;-142.75;100.00;76127.41;5044510;28;20029;-64
2023/08/17 08:56:12;;;;;;;5.72;1.38;;;;;;;-142.75;100.00;76101.81;5045976;28;20717;-64
2023/08/17 08:58:39;;;;;;;6.18;1.20;;;;;;;-142.75;100.00;76095.91;5045971;28;20058;-64
2023/08/17 09:01:07;;;;;;;3.85;1.40;;;;;;;-142.75;100.00;76158.91;5024767;28;20025;-63
2023/08/17 09:03:33;;;;;;;6.80;1.50;;;;;;;-142.75;100.00;76115.59;5032816;28;20491;-64
2023/08/17 09:05:58;;;;;;;6.28;1.38;;;;;;;-142.75;100.00;76066.41;5045225;28;20115;-64
2023/08/17 09:08:28;;;;;;;5.78;1.67;;;;;;;-142.75;100.00;76072.31;5045156;28;20025;-64
2023/08/17 09:10:54;;;;;;;2.42;1.23;;;;;;;-142.75;100.00;76072.31;5045545;28;20028;-64
2023/08/17 09:13:19;;;;;;;4.88;2.03;;;;;;;-142.75;100.00;76076.22;5045786;28;20036;-63
2023/08/17 09:15:45;;;;;;;2.75;1.02;;;;;;;-142.75;100.00;76032.94;5045454;28;20500;-63
2023/08/17 09:18:10;;;;;;;5.68;1.30;;;;;;;-142.75;100.00;76007.34;5045144;28;20483;-64
2023/08/17 09:20:47;;;;;;;7.53;1.40;;;;;;;-142.75;100.00;76042.78;5025741;28;20083;-63
2023/08/17 09:23:15;;;;;;;4.40;1.33;;;;;;;-142.75;100.00;76046.72;5025496;28;20022;-63
2023/08/17 09:25:42;;;;;;;3.58;1.20;;;;;;;-142.75;100.00;76042.78;5025352;28;20151;-64
2023/08/17 09:28:14;;;;;;;4.90;1.30;;;;;;;-142.75;100.00;76074.25;5025199;28;20029;-63
2023/08/17 09:30:53;;;;;;;3.85;1.13;;;;;;;-142.75;100.00;76050.66;5025509;28;20025;-64
2023/08/17 09:33:20;;;;;;;3.28;1.40;;;;;;;-142.75;100.00;76097.88;5044765;28;20579;-63
2023/08/17 09:35:46;;;;;;;4.70;1.30;;;;;;;-142.75;100.00;76076.22;5045129;28;20032;-63
2023/08/17 09:38:11;;;;;;;3.15;1.13;;;;;;;-142.75;100.00;76046.72;5044867;28;20025;-63
2023/08/17 09:40:37;;;;;;;5.05;1.50;;;;;;;-142.75;100.00;76005.38;5044801;28;20488;-63
2023/08/17 09:43:02;;;;;;;5.57;1.35;;;;;;;-142.75;100.00;76011.28;5045198;28;20033;-63
2023/08/17 09:45:29;;;;;;;3.55;1.65;;;;;;;-142.75;100.00;76044.75;5044549;28;20060;-64
2023/08/17 09:47:54;;;;;;;5.35;1.88;;;;;;;-142.75;100.00;76023.09;5044587;28;20032;-63
2023/08/17 09:50:22;;;;;;;2.83;1.30;;;;;;;-142.75;100.00;76040.81;5044303;28;20041;-64
2023/08/17 09:52:53;;;;;;;4.55;1.40;;;;;;;-142.75;100.00;76109.69;5044930;28;20027;-63
2023/08/17 09:55:20;;;;;;;5.05;1.65;;;;;;;-142.75;100.00;76141.19;5044679;28;20028;-63
2023/08/17 09:57:47;;;;;;;5.72;1.52;;;;;;;-142.75;100.00;76129.38;5044716;28;20186;-63
2023/08/17 10:00:13;;;;;;;5.05;1.77;;;;;;;-142.75;100.00;76121.50;5044432;28;20033;-63
2023/08/17 10:02:38;;;;;;;4.05;1.50;;;;;;;-142.75;100.00;76046.72;5044679;28;20043;-64
2023/08/17 10:05:05;;;;;;;5.78;1.80;;;;;;;-142.75;100.00;76046.72;5044520;28;20104;-63
2023/08/17 10:07:33;;;;;;;4.13;1.58;;;;;;;-142.75;100.00;76072.31;5044831;28;20044;-63
2023/08/17 10:10:03;;;;;;;8.02;2.00;;;;;;;-142.75;100.00;76066.41;5044613;28;20481;-63
2023/08/17 10:12:34;;;;;;;5.30;1.75;;;;;;;-142.75;100.00;76093.94;5043718;28;20033;-63
2023/08/17 10:15:08;;;;;;;7.18;1.85;;;;;;;-142.75;100.00;76088.03;5044177;28;20028;-63
2023/08/17 10:17:47;;;;;;;3.67;1.88;;;;;;;-142.75;100.00;76080.16;5044499;28;20035;-63
2023/08/17 10:20:14;;;;;;;5.25;2.08;;;;;;;-142.75;100.00;76090.00;5043261;28;20040;-63
2023/08/17 10:22:45;;;;;;;4.50;1.70;;;;;;;-142.75;100.00;76090.00;5044576;28;20472;-62
2023/08/17 10:25:13;;;;;;;4.05;1.52;;;;;;;-142.75;100.00;76082.13;5044483;28;20067;-63
2023/08/17 10:27:40;;;;;;;6.72;1.90;;;;;;;-142.75;100.00;76046.72;5044482;28;20431;-63
2023/08/17 10:30:07;;;;;;;3.95;1.83;;;;;;;-142.75;100.00;76086.06;5044287;28;20075;-63
2023/08/17 10:32:33;;;;;;;5.22;2.17;;;;;;;-142.75;100.00;76137.25;5044417;28;20064;-62
2023/08/17 10:34:59;;;;;;;7.07;2.50;;;;;;;-142.75;100.00;76133.31;5044252;28;20048;-63
2023/08/17 10:37:25;;;;;;;5.60;2.28;;;;;;;-142.75;100.00;76109.69;5044065;28;20061;-63
2023/08/17 10:39:51;;;;;;;5.53;1.75;;;;;;;-142.75;100.00;76111.66;5044266;28;20538;-63
2023/08/17 10:42:31;;;;;;;4.63;2.13;;;;;;;-142.75;100.00;76101.81;5045069;28;20167;-63
2023/08/17 10:44:57;;;;;;;9.23;2.20;;;;;;;-142.75;100.00;76093.94;5044187;28;20108;-63
2023/08/17 10:47:26;;;;;;;5.65;2.08;;;;;;;-142.75;100.00;76117.56;5044367;28;20503;-63
2023/08/17 10:49:57;;;;;;;3.25;2.15;;;;;;;-142.75;100.00;76125.44;5023098;28;20042;-63
2023/08/17 10:52:27;;;;;;;4.60;1.90;;;;;;;-142.75;100.00;76113.63;5024697;28;20025;-63
2023/08/17 10:54:53;;;;;;;5.38;2.38;;;;;;;-142.75;100.00;76156.94;5024317;28;20116;-63
2023/08/17 10:57:25;;;;;;;6.55;2.38;;;;;;;-142.75;100.00;76172.69;5024532;28;20121;-63
2023/08/17 11:00:17;;;;;;;4.50;2.13;;;;;;;-142.75;100.00;76158.91;5024320;28;20033;-63
2023/08/17 11:03:07;;;;;;;7.65;2.08;;;;;;;-142.75;100.00;76117.56;5034094;28;20025;-63
2023/08/17 11:05:41;;;;;;;6.03;2.03;;;;;;;-142.75;100.00;76145.13;5047577;28;20036;-63
2023/08/17 11:08:11;;;;;;;4.70;1.63;;;;;;;-142.75;100.00;76129.38;5047362;28;20071;-63